sensor_id;sensor_type;location;lat;lon;timestamp;pressure;altitude;pressure_sealevel;temperature;humidity
20156;BME280;10238;49.556;10.956;2023-10-19T00:02:34;96960.94;;;7.93;100.00
20156;BME280;10238;49.556;10.956;2023-10-19T00:05:20;96949.72;;;7.91;100.00
20156;BME280;10238;49.556;10.956;2023-10-19T00:08:13;96951.34;;;7.92;100.00
20156;BME280;10238;49.556;10.956;2023-10-19T00:11:08;96945.53;;;7.96;100.00
20156;BME280;10238;49.556;10.956;2023-10-19T00:13:56;96945.38;;;7.98;100.00
20156;BME280;10238;49.556;10.956;2023-10-19T00:16:45;96945.38;;;7.98;100.00
20156;BME280;10238;49.556;10.956;2023-10-19T00:19:37;96939.25;;;7.97;100.00
20156;BME280;10238;49.556;10.956;2023-10-19T00:22:26;96933.13;;;7.97;100.00
20156;BME280;10238;49.556;10.956;2023-10-19T00:25:17;96936.78;;;7.96;100.00
20156;BME280;10238;49.556;10.956;2023-10-19T00:28:07;96928.84;;;7.96;100.00
20156;BME280;10238;49.556;10.956;2023-10-19T00:30:55;96922.09;;;7.93;100.00
20156;BME280;10238;49.556;10.956;2023-10-19T00:33:50;96932.31;;;7.96;100.00
20156;BME280;10238;49.556;10.956;2023-10-19T00:36:38;96934.13;;;7.96;100.00
20156;BME280;10238;49.556;10.956;2023-10-19T00:39:26;96922.91;;;7.94;100.00
20156;BME280;10238;49.556;10.956;2023-10-19T00:42:14;96928.22;;;7.94;100.00
20156;BME280;10238;49.556;10.956;2023-10-19T00:45:09;96927.38;;;7.93;100.00
20156;BME280;10238;49.556;10.956;2023-10-19T00:47:59;96922.91;;;7.94;100.00
20156;BME280;10238;49.556;10.956;2023-10-19T00:50:47;96919.25;;;7.95;100.00
20156;BME280;10238;49.556;10.956;2023-10-19T00:53:40;96920.91;;;7.96;100.00
20156;BME280;10238;49.556;10.956;2023-10-19T00:56:28;96917.63;;;7.94;100.00
20156;BME280;10238;49.556;10.956;2023-10-19T00:59:20;96901.38;;;7.97;100.00
20156;BME280;10238;49.556;10.956;2023-10-19T01:02:11;96891.44;;;7.99;100.00
20156;BME280;10238;49.556;10.956;2023-10-19T01:05:08;96905.97;;;8.03;100.00
20156;BME280;10238;49.556;10.956;2023-10-19T01:07:59;96905.81;;;8.04;100.00
20156;BME280;10238;49.556;10.956;2023-10-19T01:10:51;96898.53;;;8.06;100.00
20156;BME280;10238;49.556;10.956;2023-10-19T01:13:41;96893.41;;;8.05;100.00
20156;BME280;10238;49.556;10.956;2023-10-19T01:16:31;96891.78;;;8.04;100.00
20156;BME280;10238;49.556;10.956;2023-10-19T01:19:20;96887.28;;;8.04;100.00
20156;BME280;10238;49.556;10.956;2023-10-19T01:22:09;96884.63;;;8.04;100.00
20156;BME280;10238;49.556;10.956;2023-10-19T01:25:06;96881.19;;;8.04;100.00
20156;BME280;10238;49.556;10.956;2023-10-19T01:27:57;96875.22;;;8.02;100.00
20156;BME280;10238;49.556;10.956;2023-10-19T01:30:45;96876.25;;;8.01;100.00
20156;BME280;10238;49.556;10.956;2023-10-19T01:33:38;96874.56;;;8.00;100.00
20156;BME280;10238;49.556;10.956;2023-10-19T01:36:27;96866.28;;;8.03;100.00
20156;BME280;10238;49.556;10.956;2023-10-19T01:39:14;96870.25;;;8.07;100.00
20156;BME280;10238;49.556;10.956;2023-10-19T01:42:03;96870.59;;;8.04;100.00
20156;BME280;10238;49.556;10.956;2023-10-19T01:44:51;96868.31;;;8.01;100.00
20156;BME280;10238;49.556;10.956;2023-10-19T01:47:37;96861.34;;;8.00;100.00
20156;BME280;10238;49.556;10.956;2023-10-19T01:50:27;96851.59;;;8.00;100.00
20156;BME280;10238;49.556;10.956;2023-10-19T01:53:14;96850.59;;;8.01;100.00
20156;BME280;10238;49.556;10.956;2023-10-19T01:56:02;96838.00;;;8.03;100.00
20156;BME280;10238;49.556;10.956;2023-10-19T01:58:53;96842.13;;;8.06;100.00
20156;BME280;10238;49.556;10.956;2023-10-19T02:01:41;96850.72;;;8.08;100.00
20156;BME280;10238;49.556;10.956;2023-10-19T02:04:31;96832.19;;;8.08;100.00
20156;BME280;10238;49.556;10.956;2023-10-19T02:07:22;96831.38;;;8.07;100.00
20156;BME280;10238;49.556;10.956;2023-10-19T02:10:10;96816.97;;;8.10;100.00
20156;BME280;10238;49.556;10.956;2023-10-19T02:12:57;96823.25;;;8.09;100.00
20156;BME280;10238;49.556;10.956;2023-10-19T02:15:46;96824.09;;;8.09;100.00
20156;BME280;10238;49.556;10.956;2023-10-19T02:18:34;96832.19;;;8.08;100.00
20156;BME280;10238;49.556;10.956;2023-10-19T02:21:21;96818.13;;;8.07;100.00
20156;BME280;10238;49.556;10.956;2023-10-19T02:24:14;96816.16;;;8.09;100.00
20156;BME280;10238;49.556;10.956;2023-10-19T02:27:02;96836.13;;;8.12;100.00
20156;BME280;10238;49.556;10.956;2023-10-19T02:29:50;96837.78;;;8.13;100.00
20156;BME280;10238;49.556;10.956;2023-10-19T02:32:39;96819.06;;;8.14;100.00
20156;BME280;10238;49.556;10.956;2023-10-19T02:35:26;96823.19;;;8.17;100.00
20156;BME280;10238;49.556;10.956;2023-10-19T02:38:14;96816.25;;;8.16;100.00
20156;BME280;10238;49.556;10.956;2023-10-19T02:41:01;96817.25;;;8.15;100.00
20156;BME280;10238;49.556;10.956;2023-10-19T02:43:49;96816.91;;;8.18;100.00
20156;BME280;10238;49.556;10.956;2023-10-19T02:46:38;96811.44;;;8.19;100.00
20156;BME280;10238;49.556;10.956;2023-10-19T02:49:30;96814.91;;;8.20;100.00
20156;BME280;10238;49.556;10.956;2023-10-19T02:52:17;96818.88;;;8.24;100.00
20156;BME280;10238;49.556;10.956;2023-10-19T02:55:06;96813.56;;;8.24;100.00
20156;BME280;10238;49.556;10.956;2023-10-19T02:57:54;96817.25;;;8.23;100.00
20156;BME280;10238;49.556;10.956;2023-10-19T03:00:42;96810.28;;;8.22;100.00
20156;BME280;10238;49.556;10.956;2023-10-19T03:03:29;96801.34;;;8.23;100.00
20156;BME280;10238;49.556;10.956;2023-10-19T03:06:22;96804.00;;;8.23;100.00
20156;BME280;10238;49.556;10.956;2023-10-19T03:09:09;96804.97;;;8.22;100.00
20156;BME280;10238;49.556;10.956;2023-10-19T03:12:02;96812.09;;;8.21;100.00
20156;BME280;10238;49.556;10.956;2023-10-19T03:14:50;96803.31;;;8.21;100.00
20156;BME280;10238;49.556;10.956;2023-10-19T03:17:38;96783.81;;;8.22;100.00
20156;BME280;10238;49.556;10.956;2023-10-19T03:20:30;96780.19;;;8.23;100.00
20156;BME280;10238;49.556;10.956;2023-10-19T03:23:21;96780.00;;;8.24;100.00
20156;BME280;10238;49.556;10.956;2023-10-19T03:26:08;96765.94;;;8.24;100.00
20156;BME280;10238;49.556;10.956;2023-10-19T03:29:04;96771.22;;;8.24;100.00
20156;BME280;10238;49.556;10.956;2023-10-19T03:31:54;96771.88;;;8.26;100.00
20156;BME280;10238;49.556;10.956;2023-10-19T03:34:42;96762.28;;;8.25;100.00
20156;BME280;10238;49.556;10.956;2023-10-19T03:37:34;96765.59;;;8.27;100.00
20156;BME280;10238;49.556;10.956;2023-10-19T03:40:24;96779.66;;;8.27;100.00
20156;BME280;10238;49.556;10.956;2023-10-19T03:43:20;96768.06;;;8.28;100.00
20156;BME280;10238;49.556;10.956;2023-10-19T03:46:09;96759.94;;;8.30;100.00
20156;BME280;10238;49.556;10.956;2023-10-19T03:49:09;96754.63;;;8.30;100.00
20156;BME280;10238;49.556;10.956;2023-10-19T03:51:59;96757.56;;;8.35;100.00
20156;BME280;10238;49.556;10.956;2023-10-19T03:54:48;96752.25;;;8.35;100.00
20156;BME280;10238;49.556;10.956;2023-10-19T03:57:38;96745.16;;;8.35;100.00
20156;BME280;10238;49.556;10.956;2023-10-19T04:00:28;96738.41;;;8.33;100.00
20156;BME280;10238;49.556;10.956;2023-10-19T04:03:19;96731.72;;;8.37;100.00
20156;BME280;10238;49.556;10.956;2023-10-19T04:06:11;96722.16;;;8.36;100.00
20156;BME280;10238;49.556;10.956;2023-10-19T04:09:01;96714.03;;;8.37;100.00
20156;BME280;10238;49.556;10.956;2023-10-19T04:11:51;96722.78;;;8.38;100.00
20156;BME280;10238;49.556;10.956;2023-10-19T04:14:40;96711.22;;;8.39;100.00
20156;BME280;10238;49.556;10.956;2023-10-19T04:17:28;96707.06;;;8.36;100.00
20156;BME280;10238;49.556;10.956;2023-10-19T04:20:17;96712.19;;;8.38;100.00
20156;BME280;10238;49.556;10.956;2023-10-19T04:23:17;96716.50;;;8.39;100.00
20156;BME280;10238;49.556;10.956;2023-10-19T04:26:04;96709.53;;;8.38;100.00
20156;BME280;10238;49.556;10.956;2023-10-19T04:28:57;96704.25;;;8.38;100.00
20156;BME280;10238;49.556;10.956;2023-10-19T04:31:45;96699.78;;;8.38;100.00
20156;BME280;10238;49.556;10.956;2023-10-19T04:34:41;96697.31;;;8.37;100.00
20156;BME280;10238;49.556;10.956;2023-10-19T04:37:28;96692.03;;;8.37;100.00
20156;BME280;10238;49.556;10.956;2023-10-19T04:40:17;96684.09;;;8.37;100.00
20156;BME280;10238;49.556;10.956;2023-10-19T04:43:04;96679.44;;;8.39;100.00
20156;BME280;10238;49.556;10.956;2023-10-19T04:45:52;96671.50;;;8.39;100.00
20156;BME280;10238;49.556;10.956;2023-10-19T04:48:42;96676.78;;;8.39;100.00
20156;BME280;10238;49.556;10.956;2023-10-19T04:51:30;96681.06;;;8.40;100.00
20156;BME280;10238;49.556;10.956;2023-10-19T04:54:18;96686.38;;;8.40;85.91
20156;BME280;10238;49.556;10.956;2023-10-19T04:57:05;96683.53;;;8.41;75.63
20156;BME280;10238;49.556;10.956;2023-10-19T04:59:53;96670.31;;;8.41;58.51
20156;BME280;10238;49.556;10.956;2023-10-19T05:02:43;96671.13;;;8.42;48.14
20156;BME280;10238;49.556;10.956;2023-10-19T05:05:32;96676.44;;;8.42;34.81
20156;BME280;10238;49.556;10.956;2023-10-19T05:08:25;96670.31;;;8.41;25.12
20156;BME280;10238;49.556;10.956;2023-10-19T05:11:14;96674.59;;;8.42;18.81
20156;BME280;10238;49.556;10.956;2023-10-19T05:14:02;96668.31;;;8.43;11.83
20156;BME280;10238;49.556;10.956;2023-10-19T05:16:52;96677.06;;;8.44;6.84
20156;BME280;10238;49.556;10.956;2023-10-19T05:19:40;96669.09;;;8.44;0.00
20156;BME280;10238;49.556;10.956;2023-10-19T05:22:29;96668.13;;;8.45;0.00
20156;BME280;10238;49.556;10.956;2023-10-19T05:25:19;96672.41;;;8.46;0.00
20156;BME280;10238;49.556;10.956;2023-10-19T05:28:10;96671.41;;;8.47;0.00
20156;BME280;10238;49.556;10.956;2023-10-19T05:30:57;96665.91;;;8.48;0.00
20156;BME280;10238;49.556;10.956;2023-10-19T05:33:45;96665.13;;;8.48;0.00
20156;BME280;10238;49.556;10.956;2023-10-19T05:36:34;96675.50;;;8.49;0.00
20156;BME280;10238;49.556;10.956;2023-10-19T05:39:23;96663.09;;;8.50;0.00
20156;BME280;10238;49.556;10.956;2023-10-19T05:42:14;96669.03;;;8.52;0.00
20156;BME280;10238;49.556;10.956;2023-10-19T05:45:02;96682.88;;;8.54;0.00
20156;BME280;10238;49.556;10.956;2023-10-19T05:47:52;96682.72;;;8.55;0.00
20156;BME280;10238;49.556;10.956;2023-10-19T05:50:40;96674.75;;;8.55;0.00
20156;BME280;10238;49.556;10.956;2023-10-19T05:53:28;96670.13;;;8.57;0.00
20156;BME280;10238;49.556;10.956;2023-10-19T05:56:18;96673.25;;;8.61;0.00
20156;BME280;10238;49.556;10.956;2023-10-19T05:59:07;96668.75;;;8.61;0.00
20156;BME280;10238;49.556;10.956;2023-10-19T06:02:01;96668.13;;;8.59;0.00
20156;BME280;10238;49.556;10.956;2023-10-19T06:04:54;96679.69;;;8.58;0.00
20156;BME280;10238;49.556;10.956;2023-10-19T06:07:44;96682.53;;;8.57;0.00
20156;BME280;10238;49.556;10.956;2023-10-19T06:10:37;96685.53;;;8.54;0.00
20156;BME280;10238;49.556;10.956;2023-10-19T06:13:31;96676.31;;;8.50;0.00
20156;BME280;10238;49.556;10.956;2023-10-19T06:16:19;96682.63;;;8.49;0.00
20156;BME280;10238;49.556;10.956;2023-10-19T06:19:07;96680.34;;;8.46;0.00
20156;BME280;10238;49.556;10.956;2023-10-19T06:21:55;96687.63;;;8.44;0.00
20156;BME280;10238;49.556;10.956;2023-10-19T06:24:43;96684.38;;;8.42;0.00
20156;BME280;10238;49.556;10.956;2023-10-19T06:27:31;96691.66;;;8.40;0.00
20156;BME280;10238;49.556;10.956;2023-10-19T06:30:20;96691.31;;;8.43;0.00
20156;BME280;10238;49.556;10.956;2023-10-19T06:33:09;96689.75;;;8.48;0.00
20156;BME280;10238;49.556;10.956;2023-10-19T06:35:57;96682.28;;;8.52;0.00
20156;BME280;10238;49.556;10.956;2023-10-19T06:38:45;96687.03;;;8.56;0.00
20156;BME280;10238;49.556;10.956;2023-10-19T06:41:35;96686.84;;;8.58;0.00
20156;BME280;10238;49.556;10.956;2023-10-19T06:44:23;96684.25;;;8.64;0.00
20156;BME280;10238;49.556;10.956;2023-10-19T06:47:13;96688.00;;;8.70;0.00
20156;BME280;10238;49.556;10.956;2023-10-19T06:50:01;96682.63;;;8.78;0.00
20156;BME280;10238;49.556;10.956;2023-10-19T06:52:52;96673.47;;;8.80;0.00
20156;BME280;10238;49.556;10.956;2023-10-19T06:55:41;96669.91;;;8.88;0.00
20156;BME280;10238;49.556;10.956;2023-10-19T06:58:29;96694.66;;;8.95;0.00
20156;BME280;10238;49.556;10.956;2023-10-19T07:01:17;96697.75;;;8.99;0.00
20156;BME280;10238;49.556;10.956;2023-10-19T07:04:11;96692.91;;;9.02;0.00
20156;BME280;10238;49.556;10.956;2023-10-19T07:06:59;96692.53;;;9.05;0.00
20156;BME280;10238;49.556;10.956;2023-10-19T07:09:47;96690.34;;;9.09;0.00
20156;BME280;10238;49.556;10.956;2023-10-19T07:12:35;96684.84;;;9.10;0.00
20156;BME280;10238;49.556;10.956;2023-10-19T07:15:23;96681.00;;;9.13;0.00
20156;BME280;10238;49.556;10.956;2023-10-19T07:18:12;96691.03;;;9.17;0.00
20156;BME280;10238;49.556;10.956;2023-10-19T07:21:01;96687.00;;;9.21;0.00
20156;BME280;10238;49.556;10.956;2023-10-19T07:23:50;96685.84;;;9.24;0.00
20156;BME280;10238;49.556;10.956;2023-10-19T07:26:39;96680.78;;;9.29;0.00
20156;BME280;10238;49.556;10.956;2023-10-19T07:29:37;96678.19;;;9.35;0.00
20156;BME280;10238;49.556;10.956;2023-10-19T07:32:29;96665.19;;;9.40;0.00
20156;BME280;10238;49.556;10.956;2023-10-19T07:35:18;96666.91;;;9.48;0.00
20156;BME280;10238;49.556;10.956;2023-10-19T07:38:08;96663.50;;;9.54;0.00
20156;BME280;10238;49.556;10.956;2023-10-19T07:40:55;96661.91;;;9.59;0.00
20156;BME280;10238;49.556;10.956;2023-10-19T07:43:43;96665.28;;;9.68;0.00
20156;BME280;10238;49.556;10.956;2023-10-19T07:46:32;96663.69;;;9.73;0.00
20156;BME280;10238;49.556;10.956;2023-10-19T07:49:19;96661.91;;;9.80;0.00
20156;BME280;10238;49.556;10.956;2023-10-19T07:52:08;96651.16;;;9.88;0.00
20156;BME280;10238;49.556;10.956;2023-10-19T07:54:58;96644.94;;;10.02;2.67
20156;BME280;10238;49.556;10.956;2023-10-19T07:57:50;96645.59;;;10.04;60.21
20156;BME280;10238;49.556;10.956;2023-10-19T08:00:38;96643.81;;;10.11;100.00
20156;BME280;10238;49.556;10.956;2023-10-19T08:03:28;96654.91;;;10.21;100.00
20156;BME280;10238;49.556;10.956;2023-10-19T08:06:15;96652.50;;;10.26;100.00
20156;BME280;10238;49.556;10.956;2023-10-19T08:09:03;96655.78;;;10.28;100.00
20156;BME280;10238;49.556;10.956;2023-10-19T08:11:54;96650.47;;;10.28;100.00
20156;BME280;10238;49.556;10.956;2023-10-19T08:14:42;96643.94;;;10.31;100.00
20156;BME280;10238;49.556;10.956;2023-10-19T08:17:30;96635.38;;;10.35;100.00
20156;BME280;10238;49.556;10.956;2023-10-19T08:20:20;96629.75;;;10.51;100.00
20156;BME280;10238;49.556;10.956;2023-10-19T08:23:13;96631.47;;;10.65;100.00
20156;BME280;10238;49.556;10.956;2023-10-19T08:26:04;96632.78;;;10.82;100.00
20156;BME280;10238;49.556;10.956;2023-10-19T08:28:54;96633.22;;;10.86;100.00
20156;BME280;10238;49.556;10.956;2023-10-19T08:31:43;96623.84;;;10.97;100.00
20156;BME280;10238;49.556;10.956;2023-10-19T08:34:34;96622.19;;;10.95;100.00
20156;BME280;10238;49.556;10.956;2023-10-19T08:37:24;96624.41;;;10.85;100.00
20156;BME280;10238;49.556;10.956;2023-10-19T08:40:13;96630.34;;;10.87;100.00
20156;BME280;10238;49.556;10.956;2023-10-19T08:43:02;96615.41;;;10.86;100.00
20156;BME280;10238;49.556;10.956;2023-10-19T08:45:54;96614.41;;;10.87;100.00
20156;BME280;10238;49.556;10.956;2023-10-19T08:48:43;96609.09;;;10.87;100.00
20156;BME280;10238;49.556;10.956;2023-10-19T08:51:31;96605.84;;;10.98;100.00
20156;BME280;10238;49.556;10.956;2023-10-19T08:54:19;96603.84;;;11.14;100.00
20156;BME280;10238;49.556;10.956;2023-10-19T08:57:07;96602.81;;;11.15;100.00
20156;BME280;10238;49.556;10.956;2023-10-19T08:59:54;96607.53;;;11.13;100.00
20156;BME280;10238;49.556;10.956;2023-10-19T09:02:46;96612.88;;;11.19;100.00
20156;BME280;10238;49.556;10.956;2023-10-19T09:05:38;96610.44;;;11.31;100.00
20156;BME280;10238;49.556;10.956;2023-10-19T09:08:27;96612.50;;;11.48;100.00
20156;BME280;10238;49.556;10.956;2023-10-19T09:11:24;96601.06;;;11.61;100.00
20156;BME280;10238;49.556;10.956;2023-10-19T09:14:13;96606.81;;;11.58;100.00
20156;BME280;10238;49.556;10.956;2023-10-19T09:17:00;96604.16;;;11.64;100.00
20156;BME280;10238;49.556;10.956;2023-10-19T09:19:55;96602.72;;;11.68;100.00
20156;BME280;10238;49.556;10.956;2023-10-19T09:22:43;96597.19;;;11.70;100.00
20156;BME280;10238;49.556;10.956;2023-10-19T09:25:31;96598.84;;;11.64;100.00
20156;BME280;10238;49.556;10.956;2023-10-19T09:28:19;96604.16;;;11.64;100.00
20156;BME280;10238;49.556;10.956;2023-10-19T09:31:07;96601.72;;;11.69;100.00
20156;BME280;10238;49.556;10.956;2023-10-19T09:33:58;96600.28;;;11.73;100.00
20156;BME280;10238;49.556;10.956;2023-10-19T09:36:47;96595.78;;;11.80;100.00
20156;BME280;10238;49.556;10.956;2023-10-19T09:39:35;96599.44;;;11.86;100.00
20156;BME280;10238;49.556;10.956;2023-10-19T09:42:27;96603.34;;;11.96;100.00
20156;BME280;10238;49.556;10.956;2023-10-19T09:45:19;96604.19;;;12.03;100.00
20156;BME280;10238;49.556;10.956;2023-10-19T09:48:08;96602.13;;;12.12;100.00
20156;BME280;10238;49.556;10.956;2023-10-19T09:51:03;96585.69;;;12.21;100.00
20156;BME280;10238;49.556;10.956;2023-10-19T09:53:59;96586.28;;;12.30;100.00
20156;BME280;10238;49.556;10.956;2023-10-19T09:56:58;96585.47;;;12.36;100.00
20156;BME280;10238;49.556;10.956;2023-10-19T09:59:54;96579.91;;;12.44;100.00
20156;BME280;10238;49.556;10.956;2023-10-19T10:02:44;96572.31;;;12.54;100.00
20156;BME280;10238;49.556;10.956;2023-10-19T10:05:45;96570.63;;;12.66;100.00
20156;BME280;10238;49.556;10.956;2023-10-19T10:08:36;96553.16;;;12.70;100.00
20156;BME280;10238;49.556;10.956;2023-10-19T10:11:27;96537.97;;;12.77;100.00
20156;BME280;10238;49.556;10.956;2023-10-19T10:14:25;96532.75;;;12.95;100.00
20156;BME280;10238;49.556;10.956;2023-10-19T10:17:19;96528.34;;;13.14;100.00
20156;BME280;10238;49.556;10.956;2023-10-19T10:20:29;96533.78;;;13.32;100.00
20156;BME280;10238;49.556;10.956;2023-10-19T10:23:20;96540.81;;;13.26;100.00
20156;BME280;10238;49.556;10.956;2023-10-19T10:26:15;96526.84;;;13.24;100.00
20156;BME280;10238;49.556;10.956;2023-10-19T10:29:13;96523.13;;;13.25;100.00
20156;BME280;10238;49.556;10.956;2023-10-19T10:32:06;96522.38;;;13.43;100.00
20156;BME280;10238;49.556;10.956;2023-10-19T10:34:56;96509.38;;;13.53;100.00
20156;BME280;10238;49.556;10.956;2023-10-19T10:37:53;96507.50;;;13.60;100.00
20156;BME280;10238;49.556;10.956;2023-10-19T10:40:46;96498.22;;;13.62;100.00
20156;BME280;10238;49.556;10.956;2023-10-19T10:43:48;96498.47;;;13.54;100.00
20156;BME280;10238;49.556;10.956;2023-10-19T10:46:40;96501.94;;;13.61;100.00
20156;BME280;10238;49.556;10.956;2023-10-19T10:49:28;96491.78;;;13.70;100.00
20156;BME280;10238;49.556;10.956;2023-10-19T10:52:28;96489.47;;;13.73;100.00
20156;BME280;10238;49.556;10.956;2023-10-19T10:55:16;96492.31;;;13.78;100.00
20156;BME280;10238;49.556;10.956;2023-10-19T10:58:04;96486.97;;;13.78;100.00
20156;BME280;10238;49.556;10.956;2023-10-19T11:00:52;96483.88;;;13.81;100.00
20156;BME280;10238;49.556;10.956;2023-10-19T11:03:42;96491.75;;;13.94;100.00
20156;BME280;10238;49.556;10.956;2023-10-19T11:06:30;96495.34;;;14.06;100.00
20156;BME280;10238;49.556;10.956;2023-10-19T11:09:18;96493.72;;;14.23;100.00
20156;BME280;10238;49.556;10.956;2023-10-19T11:12:11;96479.38;;;14.54;100.00
20156;BME280;10238;49.556;10.956;2023-10-19T11:15:01;96477.81;;;14.64;100.00
20156;BME280;10238;49.556;10.956;2023-10-19T11:17:56;96481.34;;;14.76;100.00
20156;BME280;10238;49.556;10.956;2023-10-19T11:20:45;96469.75;;;14.82;100.00
20156;BME280;10238;49.556;10.956;2023-10-19T11:23:43;96464.22;;;14.95;100.00
20156;BME280;10238;49.556;10.956;2023-10-19T11:26:31;96461.59;;;15.18;100.00
20156;BME280;10238;49.556;10.956;2023-10-19T11:29:26;96454.31;;;15.37;100.00
20156;BME280;10238;49.556;10.956;2023-10-19T11:32:14;96446.53;;;15.47;100.00
20156;BME280;10238;49.556;10.956;2023-10-19T11:35:02;96438.50;;;15.47;100.00
20156;BME280;10238;49.556;10.956;2023-10-19T11:37:52;96433.50;;;15.51;100.00
20156;BME280;10238;49.556;10.956;2023-10-19T11:40:41;96434.09;;;15.76;100.00
20156;BME280;10238;49.556;10.956;2023-10-19T11:43:28;96429.63;;;15.93;100.00
20156;BME280;10238;49.556;10.956;2023-10-19T11:46:17;96419.59;;;16.00;100.00
20156;BME280;10238;49.556;10.956;2023-10-19T11:49:05;96414.03;;;15.90;100.00
20156;BME280;10238;49.556;10.956;2023-10-19T11:51:53;96409.13;;;15.87;100.00
20156;BME280;10238;49.556;10.956;2023-10-19T11:54:42;96396.31;;;16.00;100.00
20156;BME280;10238;49.556;10.956;2023-10-19T11:57:32;96397.22;;;16.06;100.00
20156;BME280;10238;49.556;10.956;2023-10-19T12:00:20;96400.81;;;16.11;100.00
20156;BME280;10238;49.556;10.956;2023-10-19T12:03:11;96406.69;;;16.08;100.00
20156;BME280;10238;49.556;10.956;2023-10-19T12:05:59;96411.22;;;16.08;100.00
20156;BME280;10238;49.556;10.956;2023-10-19T12:08:50;96407.00;;;16.12;100.00
20156;BME280;10238;49.556;10.956;2023-10-19T12:11:43;96396.97;;;16.19;100.00
20156;BME280;10238;49.556;10.956;2023-10-19T12:14:34;96400.03;;;16.11;100.00
20156;BME280;10238;49.556;10.956;2023-10-19T12:17:22;96384.41;;;16.08;100.00
20156;BME280;10238;49.556;10.956;2023-10-19T12:20:12;96391.94;;;16.22;100.00
20156;BME280;10238;49.556;10.956;2023-10-19T12:23:01;96388.84;;;16.14;100.00
20156;BME280;10238;49.556;10.956;2023-10-19T12:25:51;96382.69;;;16.02;100.00
20156;BME280;10238;49.556;10.956;2023-10-19T12:28:44;96382.56;;;15.97;100.00
20156;BME280;10238;49.556;10.956;2023-10-19T12:31:35;96378.63;;;15.88;100.00
20156;BME280;10238;49.556;10.956;2023-10-19T12:34:26;96385.50;;;15.84;100.00
20156;BME280;10238;49.556;10.956;2023-10-19T12:37:16;96386.09;;;15.86;100.00
20156;BME280;10238;49.556;10.956;2023-10-19T12:40:06;96396.81;;;15.86;100.00
20156;BME280;10238;49.556;10.956;2023-10-19T12:43:13;96397.28;;;15.83;100.00
20156;BME280;10238;49.556;10.956;2023-10-19T12:46:02;96391.09;;;15.82;100.00
20156;BME280;10238;49.556;10.956;2023-10-19T12:48:50;96389.47;;;15.81;100.00
20156;BME280;10238;49.556;10.956;2023-10-19T12:51:38;96389.94;;;15.78;100.00
20156;BME280;10238;49.556;10.956;2023-10-19T12:54:28;96384.72;;;15.72;100.00
20156;BME280;10238;49.556;10.956;2023-10-19T12:57:16;96401.72;;;15.77;100.00
20156;BME280;10238;49.556;10.956;2023-10-19T13:00:08;96399.81;;;15.78;100.00
20156;BME280;10238;49.556;10.956;2023-10-19T13:03:04;96399.34;;;15.81;100.00
20156;BME280;10238;49.556;10.956;2023-10-19T13:05:52;96396.13;;;15.79;100.00
20156;BME280;10238;49.556;10.956;2023-10-19T13:08:41;96405.78;;;15.68;100.00
20156;BME280;10238;49.556;10.956;2023-10-19T13:11:29;96403.34;;;15.67;100.00
20156;BME280;10238;49.556;10.956;2023-10-19T13:14:19;96399.50;;;15.63;100.00
20156;BME280;10238;49.556;10.956;2023-10-19T13:17:06;96400.66;;;15.67;100.00
20156;BME280;10238;49.556;10.956;2023-10-19T13:19:56;96398.34;;;15.82;100.00
20156;BME280;10238;49.556;10.956;2023-10-19T13:22:47;96384.09;;;15.93;100.00
20156;BME280;10238;49.556;10.956;2023-10-19T13:25:35;96377.00;;;15.87;100.00
20156;BME280;10238;49.556;10.956;2023-10-19T13:28:34;96364.53;;;15.81;100.00
20156;BME280;10238;49.556;10.956;2023-10-19T13:31:24;96353.34;;;15.84;100.00
20156;BME280;10238;49.556;10.956;2023-10-19T13:34:13;96358.84;;;15.77;100.00
20156;BME280;10238;49.556;10.956;2023-10-19T13:37:03;96353.13;;;15.74;100.00
20156;BME280;10238;49.556;10.956;2023-10-19T13:39:51;96356.41;;;15.76;100.00
20156;BME280;10238;49.556;10.956;2023-10-19T13:42:39;96363.63;;;15.75;100.00
20156;BME280;10238;49.556;10.956;2023-10-19T13:45:28;96364.91;;;15.73;100.00
20156;BME280;10238;49.556;10.956;2023-10-19T13:48:16;96362.31;;;15.78;100.00
20156;BME280;10238;49.556;10.956;2023-10-19T13:51:04;96370.59;;;15.76;100.00
20156;BME280;10238;49.556;10.956;2023-10-19T13:54:01;96360.63;;;15.72;100.00
20156;BME280;10238;49.556;10.956;2023-10-19T13:56:49;96361.09;;;15.57;100.00
20156;BME280;10238;49.556;10.956;2023-10-19T13:59:36;96374.47;;;15.46;100.00
20156;BME280;10238;49.556;10.956;2023-10-19T14:02:24;96379.81;;;15.46;100.00
20156;BME280;10238;49.556;10.956;2023-10-19T14:05:11;96382.16;;;15.42;100.00
20156;BME280;10238;49.556;10.956;2023-10-19T14:07:59;96374.19;;;15.36;100.00
20156;BME280;10238;49.556;10.956;2023-10-19T14:10:48;96372.97;;;15.38;100.00
20156;BME280;10238;49.556;10.956;2023-10-19T14:13:36;96371.78;;;15.46;100.00
20156;BME280;10238;49.556;10.956;2023-10-19T14:16:24;96370.75;;;15.47;100.00
20156;BME280;10238;49.556;10.956;2023-10-19T14:19:13;96357.34;;;15.35;100.00
20156;BME280;10238;49.556;10.956;2023-10-19T14:22:01;96367.22;;;15.35;100.00
20156;BME280;10238;49.556;10.956;2023-10-19T14:24:49;96367.38;;;15.40;100.00
20156;BME280;10238;49.556;10.956;2023-10-19T14:27:42;96369.22;;;15.28;100.00
20156;BME280;10238;49.556;10.956;2023-10-19T14:30:30;96370.22;;;15.27;100.00
20156;BME280;10238;49.556;10.956;2023-10-19T14:33:17;96372.91;;;15.27;100.00
20156;BME280;10238;49.556;10.956;2023-10-19T14:36:07;96357.44;;;15.29;100.00
20156;BME280;10238;49.556;10.956;2023-10-19T14:38:56;96360.59;;;15.26;100.00
20156;BME280;10238;49.556;10.956;2023-10-19T14:41:44;96356.28;;;15.25;100.00
20156;BME280;10238;49.556;10.956;2023-10-19T14:44:33;96352.19;;;15.22;100.00
20156;BME280;10238;49.556;10.956;2023-10-19T14:47:21;96342.53;;;15.21;100.00
20156;BME280;10238;49.556;10.956;2023-10-19T14:50:11;96337.56;;;15.25;100.00